createdAt,value
2016-07-04T00:00:55.203Z,43.26
2016-07-04T00:01:55.212Z,43.26
2016-07-04T00:02:55.248Z,43.74
2016-07-04T00:03:55.265Z,43.74
2016-07-04T00:04:55.302Z,43.84
2016-07-04T00:05:55.317Z,43.74
2016-07-04T00:06:55.345Z,43.23
2016-07-04T00:07:55.368Z,43.45
2016-07-04T00:08:55.397Z,43.14
2016-07-04T00:09:55.419Z,43.14
2016-07-04T00:10:55.439Z,43.33
2016-07-04T00:11:55.471Z,43.33
2016-07-04T00:12:55.494Z,43.23
2016-07-04T00:13:55.522Z,43.52
2016-07-04T00:14:55.547Z,43.23
2016-07-04T00:15:55.572Z,43.43
2016-07-04T00:16:55.606Z,43.62
2016-07-04T00:17:55.624Z,43.62
2016-07-04T00:18:56.256Z,43.23
2016-07-04T00:19:55.670Z,43.91
2016-07-04T00:20:56.310Z,43.91
2016-07-04T00:21:55.721Z,43.91
2016-07-04T00:22:55.740Z,43.62
2016-07-04T00:23:55.765Z,43.71
2016-07-04T00:24:55.789Z,43.81
2016-07-04T00:25:55.814Z,43.62
2016-07-04T00:26:55.837Z,43.71
2016-07-04T00:27:55.861Z,43.71
2016-07-04T00:28:55.886Z,43.71
2016-07-04T00:29:55.915Z,43.62
2016-07-04T00:30:55.942Z,43.91
2016-07-04T00:31:55.968Z,44.1
2016-07-04T00:32:55.992Z,44.1
2016-07-04T00:33:56.013Z,44
2016-07-04T00:34:56.039Z,44.1
2016-07-04T00:35:56.066Z,43.91
2016-07-04T00:36:56.088Z,43.91
2016-07-04T00:37:56.109Z,44.38
2016-07-04T00:38:56.136Z,44.38
2016-07-04T00:39:56.170Z,44.29
2016-07-04T00:40:56.192Z,44.46
2016-07-04T00:41:56.217Z,44.38
2016-07-04T00:42:56.239Z,44.2
2016-07-04T00:43:56.266Z,44.48
2016-07-04T00:44:56.291Z,44.29
2016-07-04T00:45:56.309Z,44.27
2016-07-04T00:46:56.339Z,44.65
2016-07-04T00:47:56.361Z,44.29
2016-07-04T00:48:56.385Z,44.48
2016-07-04T00:49:56.411Z,44.65
2016-07-04T00:50:56.437Z,44.46
2016-07-04T00:51:56.587Z,44.46
2016-07-04T00:52:56.579Z,44.65
2016-07-04T00:53:56.551Z,44.56
2016-07-04T00:54:56.561Z,44.65
2016-07-04T00:55:56.558Z,44.94
2016-07-04T00:56:56.582Z,44.94
2016-07-04T00:57:56.612Z,44.75
2016-07-04T00:58:56.630Z,44.84
2016-07-04T00:59:56.682Z,45.04
2016-07-04T01:00:56.769Z,45.04
2016-07-04T01:01:56.707Z,45.04
2016-07-04T01:02:56.733Z,44.94
2016-07-04T01:03:56.757Z,44.94
2016-07-04T01:04:56.781Z,45.14
2016-07-04T01:05:56.969Z,44.94
2016-07-04T01:06:56.925Z,45.23
2016-07-04T01:07:57.021Z,45.32
2016-07-04T01:08:56.874Z,45.14
2016-07-04T01:09:57.018Z,45.14
2016-07-04T01:10:56.930Z,45.14
2016-07-04T01:11:57.076Z,45.42
2016-07-04T01:12:56.974Z,45.23
2016-07-04T01:13:57.002Z,45.32
2016-07-04T01:14:57.026Z,45.32
2016-07-04T01:15:57.720Z,45.32
2016-07-04T01:16:57.072Z,45.52
2016-07-04T01:17:57.096Z,45.42
2016-07-04T01:18:57.117Z,45.32
2016-07-04T01:19:57.142Z,45.42
2016-07-04T01:20:57.171Z,45.52
2016-07-04T01:21:57.315Z,45.42
2016-07-04T01:22:57.220Z,45.52
2016-07-04T01:23:57.353Z,45.61
2016-07-04T01:24:57.379Z,45.61
2016-07-04T01:25:57.387Z,45.59
2016-07-04T01:26:57.394Z,45.61
2016-07-04T01:27:57.403Z,45.71
2016-07-04T01:28:57.411Z,45.61
2016-07-04T01:29:57.411Z,45.71
2016-07-04T01:30:58.033Z,45.98
2016-07-04T01:31:57.489Z,45.88
2016-07-04T01:32:57.499Z,45.78
2016-07-04T01:33:57.496Z,45.78
2016-07-04T01:34:57.511Z,45.68
2016-07-04T01:35:57.630Z,45.98
2016-07-04T01:36:57.638Z,45.9
2016-07-04T01:37:57.672Z,45.98
2016-07-04T01:38:57.670Z,45.88
2016-07-04T01:39:57.680Z,46.07
2016-07-04T01:40:57.686Z,45.88
2016-07-04T01:41:57.697Z,46.07
2016-07-04T01:42:57.703Z,46.07
2016-07-04T01:43:57.722Z,46.07
2016-07-04T01:44:57.753Z,46.36
2016-07-04T01:45:57.783Z,46.36
2016-07-04T01:46:57.799Z,46.26
2016-07-04T01:47:57.828Z,46.26
2016-07-04T01:48:57.849Z,46.17
2016-07-04T01:49:57.875Z,46.17
2016-07-04T01:50:57.900Z,46.55
2016-07-04T01:51:57.920Z,46.45
2016-07-04T01:52:57.946Z,46.45
2016-07-04T01:53:57.968Z,46.74
2016-07-04T01:54:57.993Z,46.26
2016-07-04T01:55:58.013Z,46.74
2016-07-04T01:56:58.040Z,46.94
2016-07-04T01:57:58.064Z,46.74
2016-07-04T01:58:58.091Z,46.55
2016-07-04T01:59:58.111Z,46.74
2016-07-04T02:00:58.135Z,46.74
2016-07-04T02:01:58.159Z,46.84
2016-07-04T02:02:58.185Z,46.84
2016-07-04T02:03:58.210Z,46.74
2016-07-04T02:04:58.234Z,46.84
2016-07-04T02:05:58.254Z,47.03
2016-07-04T02:06:58.386Z,47.22
2016-07-04T02:07:58.422Z,47.13
2016-07-04T02:08:58.509Z,47.13
2016-07-04T02:09:58.515Z,47.13
2016-07-04T02:10:58.479Z,47.03
2016-07-04T02:11:58.405Z,47.01
2016-07-04T02:12:58.527Z,47.22
2016-07-04T02:13:58.490Z,47.39
2016-07-04T02:14:58.499Z,47.39
2016-07-04T02:15:58.705Z,47.32
2016-07-04T02:16:58.673Z,47.03
2016-07-04T02:17:58.632Z,47.71
2016-07-04T02:18:58.572Z,47.22
2016-07-04T02:19:58.602Z,47.39
2016-07-04T02:20:58.620Z,47.39
2016-07-04T02:21:58.645Z,47.41
2016-07-04T02:22:58.782Z,47.2
2016-07-04T02:23:58.690Z,47.13
2016-07-04T02:24:58.714Z,47.58
2016-07-04T02:25:58.745Z,47.58
2016-07-04T02:26:58.763Z,47.58
2016-07-04T02:27:58.795Z,47.58
2016-07-04T02:28:58.812Z,47.68
2016-07-04T02:29:58.844Z,47.39
2016-07-04T02:30:58.860Z,47.49
2016-07-04T02:31:58.886Z,47.01
2016-07-04T02:32:58.908Z,47.3
2016-07-04T02:33:58.934Z,47.49
2016-07-04T02:34:58.955Z,47.77
2016-07-04T02:35:58.981Z,47.68
2016-07-04T02:36:59.005Z,47.68
2016-07-04T02:37:59.027Z,47.77
2016-07-04T02:38:59.056Z,48.16
2016-07-04T02:39:59.078Z,47.97
2016-07-04T02:40:59.095Z,47.97
2016-07-04T02:41:59.117Z,48.07
2016-07-04T02:42:59.148Z,48.07
2016-07-04T02:43:59.170Z,48.07
2016-07-04T02:44:59.199Z,48.25
2016-07-04T02:45:59.211Z,48.07
2016-07-04T02:46:59.239Z,48.07
2016-07-04T02:47:59.259Z,47.97
2016-07-04T02:48:59.289Z,47.97
2016-07-04T02:49:59.311Z,48.64
2016-07-04T02:50:59.338Z,48.64
2016-07-04T02:51:59.363Z,48.54
2016-07-04T02:52:59.383Z,48.44
2016-07-04T02:53:59.407Z,48.44
2016-07-04T02:54:59.432Z,48.44
2016-07-04T02:55:59.458Z,48.35
2016-07-04T02:56:59.482Z,48.35
2016-07-04T02:57:59.505Z,48.35
2016-07-04T02:58:59.518Z,48.16
2016-07-04T02:59:59.549Z,48.16
2016-07-04T03:00:59.569Z,48.16
2016-07-04T03:01:59.597Z,48.07
2016-07-04T03:02:59.618Z,48.54
2016-07-04T03:03:59.636Z,48.44
2016-07-04T03:04:59.665Z,48.44
2016-07-04T03:05:59.691Z,48.35
2016-07-04T03:06:59.717Z,48.44
2016-07-04T03:07:59.736Z,48.35
2016-07-04T03:08:59.763Z,48.35
2016-07-04T03:09:59.787Z,48.25
2016-07-04T03:10:59.809Z,48.54
2016-07-04T03:11:59.832Z,48.44
2016-07-04T03:12:59.853Z,48.54
2016-07-04T03:13:59.878Z,48.44
2016-07-04T03:14:59.897Z,48.54
2016-07-04T03:15:59.919Z,48.44
2016-07-04T03:16:59.973Z,48.64
2016-07-04T03:17:59.969Z,48.64
2016-07-04T03:18:59.988Z,48.54
2016-07-04T03:20:00.012Z,48.83
2016-07-04T03:21:00.037Z,48.83
2016-07-04T03:22:00.065Z,48.61
2016-07-04T03:23:00.084Z,48.74
2016-07-04T03:24:00.109Z,48.61
2016-07-04T03:25:00.132Z,48.8
2016-07-04T03:26:00.160Z,49.1
2016-07-04T03:27:00.179Z,48.71
2016-07-04T03:28:00.209Z,48.74
2016-07-04T03:29:00.229Z,48.71
2016-07-04T03:30:00.255Z,48.9
2016-07-04T03:31:00.277Z,48.83
2016-07-04T03:32:00.300Z,48.9
2016-07-04T03:33:00.325Z,49
2016-07-04T03:34:00.961Z,49.38
2016-07-04T03:35:00.366Z,49.48
2016-07-04T03:36:00.396Z,49.48
2016-07-04T03:37:00.445Z,49.29
2016-07-04T03:38:00.440Z,49.41
2016-07-04T03:39:00.466Z,49.5
2016-07-04T03:40:00.490Z,49.38
2016-07-04T03:41:00.504Z,49.48
2016-07-04T03:42:00.539Z,49.38
2016-07-04T03:43:00.555Z,49.29
2016-07-04T03:44:00.587Z,49.38
2016-07-04T03:45:00.663Z,49.29
2016-07-04T03:46:00.627Z,49.29
2016-07-04T03:47:00.647Z,49.29
2016-07-04T03:48:00.679Z,49.38
2016-07-04T03:49:00.697Z,49.19
2016-07-04T03:50:00.718Z,49.38
2016-07-04T03:51:00.746Z,49.48
2016-07-04T03:52:00.783Z,49.19
2016-07-04T03:53:00.793Z,49.19
2016-07-04T03:54:00.844Z,49.21
2016-07-04T03:55:00.842Z,49.29
2016-07-04T03:56:00.864Z,49.31
2016-07-04T03:57:00.880Z,49.48
2016-07-04T03:58:00.912Z,49.29
2016-07-04T03:59:00.935Z,49.41
2016-07-04T04:00:00.959Z,49.38
2016-07-04T04:01:00.984Z,49.41
2016-07-04T04:02:01.000Z,49.41
2016-07-04T04:03:01.026Z,49.31
2016-07-04T04:04:01.046Z,49.69
2016-07-04T04:05:01.073Z,49.79
2016-07-04T04:06:01.102Z,49.29
2016-07-04T04:07:01.210Z,49.38
2016-07-04T04:08:01.215Z,49.67
2016-07-04T04:09:01.225Z,49.57
2016-07-04T04:10:01.375Z,49.86
2016-07-04T04:11:01.376Z,49.41
2016-07-04T04:12:01.383Z,49.38
2016-07-04T04:13:01.382Z,49.5
2016-07-04T04:14:01.389Z,49.5
2016-07-04T04:15:01.499Z,49.48
2016-07-04T04:16:01.401Z,49.76
2016-07-04T04:17:01.544Z,49.5
2016-07-04T04:18:01.561Z,49.69
2016-07-04T04:19:01.561Z,49.41
2016-07-04T04:20:01.581Z,49.41
2016-07-04T04:21:01.579Z,49.48
2016-07-04T04:22:01.586Z,49.5
2016-07-04T04:23:01.585Z,49.57
2016-07-04T04:24:01.587Z,49.6
2016-07-04T04:25:01.594Z,49.6
2016-07-04T04:26:01.604Z,49.76
2016-07-04T04:27:01.608Z,49.69
2016-07-04T04:28:01.617Z,49.79
2016-07-04T04:29:01.641Z,49.69
2016-07-04T04:30:02.124Z,49.5
2016-07-04T04:31:01.689Z,50.08
2016-07-04T04:32:02.325Z,49.5
2016-07-04T04:33:01.732Z,49.69
2016-07-04T04:34:01.765Z,49.6
2016-07-04T04:35:01.796Z,49.6
2016-07-04T04:36:01.808Z,49.88
2016-07-04T04:37:01.832Z,49.98
2016-07-04T04:38:01.845Z,49.6
2016-07-04T04:39:01.874Z,49.6
2016-07-04T04:40:01.901Z,49.88
2016-07-04T04:41:01.919Z,49.79
2016-07-04T04:42:01.996Z,49.79
2016-07-04T04:43:01.966Z,49.41
2016-07-04T04:44:01.985Z,49.69
2016-07-04T04:45:02.012Z,49.98
2016-07-04T04:46:02.038Z,49.41
2016-07-04T04:47:02.064Z,50.37
2016-07-04T04:48:02.095Z,49.79
2016-07-04T04:49:02.113Z,50.27
2016-07-04T04:50:02.136Z,49.88
2016-07-04T04:51:02.155Z,50.17
2016-07-04T04:52:02.185Z,50.37
2016-07-04T04:53:02.227Z,49.5
2016-07-04T04:54:02.230Z,49.5
2016-07-04T04:55:02.253Z,49.41
2016-07-04T04:56:02.282Z,49.41
2016-07-04T04:57:02.294Z,49.31
2016-07-04T04:58:02.323Z,49.41
2016-07-04T04:59:02.349Z,50.17
2016-07-04T05:00:02.371Z,49.6
2016-07-04T05:01:02.390Z,49.5
2016-07-04T05:02:02.415Z,49.41
2016-07-04T05:03:02.445Z,49.6
2016-07-04T05:04:02.484Z,49.5
2016-07-04T05:05:02.484Z,49.5
2016-07-04T05:06:02.510Z,49.5
2016-07-04T05:07:02.537Z,49.6
2016-07-04T05:08:02.556Z,49.21
2016-07-04T05:09:02.580Z,49.41
2016-07-04T05:10:02.602Z,49.31
2016-07-04T05:11:02.630Z,49.31
2016-07-04T05:12:02.655Z,49.31
2016-07-04T05:13:02.676Z,49.31
2016-07-04T05:14:02.701Z,49.21
2016-07-04T05:15:02.721Z,49.21
2016-07-04T05:16:02.771Z,49.31
2016-07-04T05:17:02.768Z,49.31
2016-07-04T05:18:02.794Z,49.31
2016-07-04T05:19:02.815Z,49.33
2016-07-04T05:20:02.845Z,49.41
2016-07-04T05:21:02.862Z,49.31
2016-07-04T05:22:02.883Z,49.69
2016-07-04T05:23:02.908Z,49.79
2016-07-04T05:24:02.938Z,49.43
2016-07-04T05:25:02.963Z,49.33
2016-07-04T05:26:02.976Z,49.31
2016-07-04T05:27:03.001Z,50.08
2016-07-04T05:28:03.022Z,49.43
2016-07-04T05:29:03.045Z,49.33
2016-07-04T05:30:03.088Z,49.24
2016-07-04T05:31:03.099Z,49.24
2016-07-04T05:32:03.125Z,49.43
2016-07-04T05:33:03.142Z,49.43
2016-07-04T05:34:03.167Z,49.24
2016-07-04T05:35:03.235Z,49.24
2016-07-04T05:36:03.840Z,49.24
2016-07-04T05:37:03.480Z,49.52
2016-07-04T05:38:04.056Z,49.15
2016-07-04T05:39:03.313Z,49.33
2016-07-04T05:40:03.319Z,49.24
2016-07-04T05:41:03.328Z,49.24
2016-07-04T05:42:03.347Z,49.43
2016-07-04T05:43:03.398Z,49.15
2016-07-04T05:44:03.400Z,49.43
2016-07-04T05:45:03.423Z,49.43
2016-07-04T05:46:03.447Z,49.52
2016-07-04T05:47:03.463Z,48.95
2016-07-04T05:48:03.675Z,49.43
2016-07-04T05:49:03.521Z,49.05
2016-07-04T05:50:03.542Z,49.05
2016-07-04T05:51:03.563Z,48.85
2016-07-04T05:52:03.583Z,48.85
2016-07-04T05:53:03.792Z,48.76
2016-07-04T05:54:03.631Z,49.15
2016-07-04T05:55:03.666Z,48.69
2016-07-04T05:56:03.688Z,48.66
2016-07-04T05:57:03.708Z,48.76
2016-07-04T05:58:03.726Z,49.26
2016-07-04T05:59:04.418Z,48.66
2016-07-04T06:00:03.790Z,48.59
2016-07-04T06:01:03.801Z,48.49
2016-07-04T06:02:03.894Z,48.69
2016-07-04T06:03:03.852Z,48.4
2016-07-04T06:04:03.871Z,48.4
2016-07-04T06:05:04.038Z,48.4
2016-07-04T06:06:03.923Z,48.49
2016-07-04T06:07:03.945Z,48.4
2016-07-04T06:08:03.968Z,48.59
2016-07-04T06:09:03.992Z,48.59
2016-07-04T06:10:05.449Z,48.49
2016-07-04T06:11:04.043Z,48.59
2016-07-04T06:12:04.059Z,48.79
2016-07-04T06:13:04.075Z,48.49
2016-07-04T06:14:04.775Z,48.21
2016-07-04T06:15:04.134Z,48.59
2016-07-04T06:16:04.153Z,48.59
2016-07-04T06:17:04.174Z,48.4
2016-07-04T06:18:04.201Z,48.4
2016-07-04T06:19:04.226Z,48.21
2016-07-04T06:20:04.256Z,48.3
2016-07-04T06:21:04.338Z,48.21
2016-07-04T06:22:04.305Z,48.21
2016-07-04T06:23:04.333Z,48.4
2016-07-04T06:24:04.349Z,48.3
2016-07-04T06:25:05.108Z,47.92
2016-07-04T06:26:04.400Z,48.4
2016-07-04T06:27:04.419Z,48.23
2016-07-04T06:28:04.447Z,48.52
2016-07-04T06:29:04.467Z,48.52
2016-07-04T06:30:04.495Z,48.52
2016-07-04T06:31:04.513Z,48.71
2016-07-04T06:32:04.540Z,48.04
2016-07-04T06:33:04.564Z,48.23
2016-07-04T06:34:04.581Z,48.13
2016-07-04T06:35:04.615Z,48.33
2016-07-04T06:36:04.631Z,48.23
2016-07-04T06:37:04.655Z,48.23
2016-07-04T06:38:04.683Z,47.94
2016-07-04T06:39:05.319Z,47.85
2016-07-04T06:40:04.873Z,47.85
2016-07-04T06:41:04.758Z,47.85
2016-07-04T06:42:04.776Z,47.97
2016-07-04T06:43:04.808Z,47.66
2016-07-04T06:44:04.820Z,47.75
2016-07-04T06:45:04.848Z,47.85
2016-07-04T06:46:04.875Z,47.56
2016-07-04T06:47:04.891Z,47.56
2016-07-04T06:48:04.916Z,47.49
2016-07-04T06:49:04.940Z,47.49
2016-07-04T06:50:04.965Z,47.58
2016-07-04T06:51:05.003Z,47.77
2016-07-04T06:52:05.632Z,47.39
2016-07-04T06:53:05.040Z,47.68
2016-07-04T06:54:06.535Z,47.49
2016-07-04T06:55:05.094Z,47.3
2016-07-04T06:56:05.120Z,47.68
2016-07-04T06:57:05.140Z,47.58
2016-07-04T06:58:05.162Z,47.58
2016-07-04T06:59:05.190Z,47.3
2016-07-04T07:00:05.210Z,47.3
2016-07-04T07:01:05.231Z,47.77
2016-07-04T07:02:05.265Z,47.49
2016-07-04T07:03:05.282Z,47.51
2016-07-04T07:04:05.307Z,47.49
2016-07-04T07:05:05.334Z,47.39
2016-07-04T07:06:05.363Z,47.61
2016-07-04T07:07:05.384Z,47.31
2016-07-04T07:08:05.404Z,47.51
2016-07-04T07:09:05.429Z,47.41
2016-07-04T07:10:05.517Z,47.13
2016-07-04T07:11:05.487Z,47.03
2016-07-04T07:12:05.501Z,47.31
2016-07-04T07:13:05.533Z,47.13
2016-07-04T07:14:05.552Z,47.31
2016-07-04T07:15:05.591Z,47.13
2016-07-04T07:16:05.602Z,47.13
2016-07-04T07:17:05.626Z,47.31
2016-07-04T07:18:05.652Z,47.24
2016-07-04T07:19:05.679Z,47.34
2016-07-04T07:20:05.695Z,47.22
2016-07-04T07:21:05.723Z,47.22
2016-07-04T07:22:05.744Z,47.24
2016-07-04T07:23:05.774Z,47.13
2016-07-04T07:24:05.799Z,47.05
2016-07-04T07:25:05.824Z,46.86
2016-07-04T07:26:05.865Z,47.15
2016-07-04T07:27:05.879Z,47.24
2016-07-04T07:28:05.893Z,47.05
2016-07-04T07:29:05.920Z,46.77
2016-07-04T07:30:05.944Z,46.77
2016-07-04T07:31:05.990Z,46.95
2016-07-04T07:32:06.639Z,46.38
2016-07-04T07:33:06.057Z,47.05
2016-07-04T07:34:06.051Z,46.69
2016-07-04T07:35:06.068Z,47.08
2016-07-04T07:36:06.096Z,46.69
2016-07-04T07:37:06.127Z,47.08
2016-07-04T07:38:06.142Z,46.69
2016-07-04T07:39:06.224Z,46.4
2016-07-04T07:40:06.205Z,46.4
2016-07-04T07:41:06.217Z,46.33
2016-07-04T07:42:06.290Z,46.04
2016-07-04T07:43:06.268Z,46.33
2016-07-04T07:44:06.295Z,46.23
2016-07-04T07:45:06.311Z,45.84
2016-07-04T07:46:06.341Z,45.65
2016-07-04T07:47:06.367Z,45.56
2016-07-04T07:48:06.395Z,45.48
2016-07-04T07:49:06.415Z,45.2
2016-07-04T07:50:06.461Z,44.9
2016-07-04T07:51:06.466Z,44.81
2016-07-04T07:52:06.528Z,44.42
2016-07-04T07:53:06.516Z,44.52
2016-07-04T07:54:06.542Z,44.15
2016-07-04T07:55:06.568Z,44.25
2016-07-04T07:56:06.593Z,44.06
2016-07-04T07:57:06.640Z,43.87
2016-07-04T07:58:06.645Z,43.96
2016-07-04T07:59:06.667Z,43.12
2016-07-04T08:00:06.686Z,43.5
2016-07-04T08:01:06.725Z,42.73
2016-07-04T08:02:06.741Z,43.21
2016-07-04T08:03:06.842Z,42.54
2016-07-04T08:04:06.800Z,42.63
2016-07-04T08:05:06.810Z,42.08
2016-07-04T08:06:06.840Z,41.98
2016-07-04T08:07:06.871Z,41.5
2016-07-04T08:08:06.895Z,41.4
2016-07-04T08:09:06.917Z,41.11
2016-07-04T08:10:06.957Z,41.4
2016-07-04T08:11:06.992Z,41.3
2016-07-04T08:12:06.999Z,41.02
2016-07-04T08:13:07.023Z,41.02
2016-07-04T08:14:07.046Z,41.11
2016-07-04T08:15:07.083Z,40.94
2016-07-04T08:16:07.102Z,41.03
2016-07-04T08:17:07.122Z,40.65
2016-07-04T08:18:07.152Z,40.75
2016-07-04T08:19:07.169Z,40.26
2016-07-04T08:20:07.221Z,40.36
2016-07-04T08:21:07.293Z,40.07
2016-07-04T08:22:07.252Z,40.17
2016-07-04T08:23:07.276Z,39.22
2016-07-04T08:24:07.299Z,38.83
2016-07-04T08:25:07.340Z,38.54
2016-07-04T08:26:07.397Z,38.25
2016-07-04T08:27:07.376Z,38.16
2016-07-04T08:28:07.407Z,37.58
2016-07-04T08:29:08.055Z,37.38
2016-07-04T08:30:08.072Z,36.61
2016-07-04T08:31:07.472Z,37
2016-07-04T08:32:07.512Z,37
2016-07-04T08:33:07.538Z,36.9
2016-07-04T08:34:07.566Z,37.02
2016-07-04T08:35:08.195Z,36.82
2016-07-04T08:36:07.610Z,36.63
2016-07-04T08:37:07.639Z,36.34
2016-07-04T08:38:07.666Z,36.05
2016-07-04T08:39:07.706Z,35.97
2016-07-04T08:40:07.720Z,35.39
2016-07-04T08:41:07.743Z,35.58
2016-07-04T08:42:07.773Z,35.58
2016-07-04T08:43:07.800Z,35.39
2016-07-04T08:44:07.818Z,35.49
2016-07-04T08:45:39.895Z,35.21
2016-07-04T08:46:22.142Z,35.21
2016-07-04T08:47:46.669Z,35.21
2016-07-04T08:48:14.647Z,34.83
2016-07-04T08:49:14.678Z,34.83
2016-07-04T08:50:15.364Z,35.02
2016-07-04T08:51:16.022Z,34.63
2016-07-04T08:52:15.366Z,34.75
2016-07-04T08:53:14.829Z,34.94
2016-07-04T08:54:14.802Z,34.17
2016-07-04T08:55:14.834Z,33.87
2016-07-04T08:56:28.585Z,33.78
2016-07-04T08:57:14.879Z,33.78
2016-07-04T08:58:14.916Z,33.78
2016-07-04T08:59:14.977Z,33.8
2016-07-04T09:25:58.408Z,29.88
2016-07-04T09:26:58.448Z,30.37
2016-07-04T09:27:58.474Z,30.18
2016-07-04T09:28:58.503Z,29.88
2016-07-04T09:29:58.526Z,29.88
2016-07-04T09:30:58.557Z,29.98
2016-07-04T09:31:58.580Z,30.08
2016-07-04T09:32:58.608Z,29.88
2016-07-04T09:33:58.636Z,29.5
2016-07-04T09:34:58.657Z,29.3
2016-07-04T09:35:58.687Z,29.21
2016-07-04T09:36:58.730Z,29.11
2016-07-04T09:37:58.746Z,29.12
2016-07-04T09:38:58.766Z,29.4
2016-07-04T09:39:58.804Z,29.02
2016-07-04T09:40:58.830Z,29.02
2016-07-04T09:41:58.863Z,28.93
2016-07-04T09:42:58.886Z,28.74
2016-07-04T09:43:58.917Z,29.02
2016-07-04T09:44:58.943Z,29.02
2016-07-04T09:45:58.999Z,29.22
2016-07-04T09:46:58.995Z,28.54
2016-07-04T09:47:59.025Z,28.75
2016-07-04T09:48:59.056Z,28.45
2016-07-04T09:49:59.095Z,27.87
2016-07-04T09:50:59.127Z,27.48
2016-07-04T09:51:59.140Z,28.17
2016-07-04T09:52:59.187Z,28.18
2016-07-04T09:53:59.200Z,28.08
2016-07-04T09:54:59.244Z,27.89
2016-07-04T09:55:59.275Z,28.18
2016-07-04T09:56:59.302Z,27.69
2016-07-04T09:57:59.322Z,26.93
2016-07-04T09:58:59.353Z,27.22
2016-07-04T09:59:59.376Z,27.42
2016-07-04T10:00:59.411Z,27.42
2016-07-04T10:01:59.439Z,27.22
2016-07-04T10:02:59.470Z,27.31
2016-07-04T10:03:59.521Z,26.93
2016-07-04T10:05:00.143Z,27.32
2016-07-04T10:05:59.555Z,27.32
2016-07-04T10:06:59.590Z,27.32
2016-07-04T10:07:59.614Z,27.12
2016-07-04T10:08:59.644Z,26.34
2016-07-04T10:09:59.677Z,26.54
2016-07-04T10:10:59.709Z,26.36
2016-07-04T10:11:59.762Z,26.17
2016-07-04T10:12:59.763Z,26.07
2016-07-04T10:13:59.788Z,25.97
2016-07-04T10:14:59.817Z,26.17
2016-07-04T10:15:59.843Z,26.75
2016-07-04T10:16:59.876Z,26.55
2016-07-04T10:17:59.901Z,26.47
2016-07-04T10:18:59.942Z,26.28
2016-07-04T10:19:59.976Z,26.28
2016-07-04T10:20:59.990Z,26.18
2016-07-04T10:22:00.030Z,26.37
2016-07-04T10:23:00.051Z,25.9
2016-07-04T10:24:00.084Z,25.98
2016-07-04T10:25:00.112Z,25.8
2016-07-04T10:26:00.148Z,25.7
2016-07-04T10:27:00.176Z,25.8
2016-07-04T10:28:00.201Z,25.31
2016-07-04T10:29:00.238Z,25.03
2016-07-04T10:30:00.271Z,25.13
2016-07-04T10:31:00.295Z,24.94
2016-07-04T10:32:00.327Z,24.45
2016-07-04T10:33:00.357Z,24.76
2016-07-04T10:34:00.394Z,24.17
2016-07-04T10:35:00.414Z,24.17
2016-07-04T10:36:00.452Z,23.78
2016-07-04T10:37:00.483Z,23.69
2016-07-04T10:38:00.509Z,23.69
2016-07-04T10:39:00.553Z,23.6
2016-07-04T10:40:00.575Z,23.3
2016-07-04T10:41:00.611Z,23.01
2016-07-04T10:42:00.634Z,22.91
2016-07-04T10:43:00.677Z,23.21
2016-07-04T10:44:00.699Z,22.72
2016-07-04T10:45:00.730Z,22.62
2016-07-04T10:46:00.755Z,22.42
2016-07-04T10:47:00.783Z,23.11
2016-07-04T10:48:00.816Z,23.11
2016-07-04T10:49:00.846Z,22.33
2016-07-04T10:50:00.872Z,23.01
2016-07-04T10:51:00.912Z,23.11
2016-07-04T10:52:00.944Z,23.01
2016-07-04T10:53:00.974Z,22.91
2016-07-04T10:54:01.008Z,23.01
2016-07-04T10:55:01.033Z,22.81
2016-07-04T10:56:01.067Z,22.52
2016-07-04T10:57:01.105Z,22.72
2016-07-04T10:58:01.132Z,22.91
2016-07-04T10:59:01.157Z,23.29
2016-07-04T11:00:01.895Z,22.9
2016-07-04T11:01:01.229Z,22.91
2016-07-04T11:02:01.248Z,22.81
2016-07-04T11:03:01.280Z,22.91
2016-07-04T11:04:01.316Z,22.81
2016-07-04T11:05:01.344Z,22.52
2016-07-04T11:06:01.375Z,22.13
2016-07-04T11:07:01.409Z,22.13
2016-07-04T11:08:01.432Z,22.42
2016-07-04T11:09:01.467Z,22.31
2016-07-04T11:10:01.494Z,22.41
2016-07-04T11:11:01.523Z,22.31
2016-07-04T11:12:01.673Z,22.61
2016-07-04T11:13:01.681Z,22.71
2016-07-04T11:14:01.715Z,22.22
2016-07-04T11:15:01.719Z,22.12
2016-07-04T11:16:01.726Z,22.12
2016-07-04T11:17:01.728Z,22.41
2016-07-04T11:18:01.801Z,22.41
2016-07-04T11:19:01.802Z,23.1
2016-07-04T11:20:01.810Z,22.61
2016-07-04T11:21:01.932Z,22.31
2016-07-04T11:22:01.943Z,22.12
2016-07-04T11:23:01.975Z,22.21
2016-07-04T11:24:01.976Z,22.12
2016-07-04T11:25:01.988Z,22.11
2016-07-04T11:26:02.092Z,22.5
2016-07-04T11:27:02.039Z,22.6
2016-07-04T11:28:02.073Z,22.41
2016-07-04T11:29:02.094Z,23.08
2016-07-04T11:30:02.139Z,22.99
2016-07-04T11:31:02.158Z,23.18
2016-07-04T11:32:02.197Z,22.99
2016-07-04T11:33:02.224Z,22.89
2016-07-04T11:34:02.249Z,23.08
2016-07-04T11:35:02.287Z,23.08
2016-07-04T11:36:02.314Z,22.89
2016-07-04T11:37:02.344Z,22.99
2016-07-04T11:38:02.369Z,22.89
2016-07-04T11:39:02.416Z,22.79
2016-07-04T11:40:02.460Z,22.79
2016-07-04T11:41:02.472Z,23.19
2016-07-04T11:42:02.501Z,22.71
2016-07-04T11:43:02.533Z,22.8
2016-07-04T11:44:02.572Z,23.1
2016-07-04T11:45:02.600Z,23.1
2016-07-04T11:46:02.639Z,23.19
2016-07-04T11:47:02.654Z,23.01
2016-07-04T11:48:02.697Z,22.52
2016-07-04T11:49:02.721Z,22.62
2016-07-04T11:50:02.761Z,22.52
2016-07-04T11:51:02.787Z,22.62
2016-07-04T11:52:02.821Z,22.42
2016-07-04T11:53:02.849Z,22.73
2016-07-04T11:54:02.882Z,22.34
2016-07-04T11:55:02.920Z,22.24
2016-07-04T11:56:02.958Z,21.85
2016-07-04T11:57:02.980Z,21.56
2016-07-04T11:58:03.007Z,21.57
2016-07-04T11:59:03.049Z,21.28
2016-07-04T12:00:03.081Z,21.18
2016-07-04T12:01:03.114Z,21.28
2016-07-04T12:02:03.145Z,21.08
2016-07-04T12:03:03.179Z,20.98
2016-07-04T12:04:03.203Z,21.08
2016-07-04T12:05:03.231Z,20.59
2016-07-04T12:06:03.270Z,20.69
2016-07-04T12:07:03.294Z,20.87
2016-07-04T12:08:03.336Z,20.79
2016-07-04T12:09:03.374Z,20.2
2016-07-04T12:10:03.395Z,19.81
2016-07-04T12:11:03.427Z,19.91
2016-07-04T12:12:03.460Z,20.4
2016-07-04T12:13:03.493Z,19.81
2016-07-04T12:14:03.519Z,19.62
2016-07-04T12:15:03.657Z,19.23
2016-07-04T12:16:03.694Z,19.62
2016-07-04T12:17:03.836Z,19.13
2016-07-04T12:18:04.496Z,19.13
2016-07-04T12:19:04.493Z,18.93
2016-07-04T12:20:03.897Z,19.03
2016-07-04T12:21:03.906Z,19.23
2016-07-04T12:22:03.941Z,19.03
2016-07-04T12:23:03.953Z,19.03
2016-07-04T12:24:03.962Z,18.64
2016-07-04T12:25:03.972Z,18.74
2016-07-04T12:26:03.981Z,18.44
2016-07-04T12:27:03.986Z,18.35
2016-07-04T12:28:04.060Z,18.35
2016-07-04T12:29:04.086Z,18.74
2016-07-04T12:30:04.101Z,18.64
2016-07-04T12:31:04.107Z,19.03
2016-07-04T12:32:04.115Z,19.13
2016-07-04T12:33:04.138Z,19.13
2016-07-04T12:34:04.172Z,19.13
2016-07-04T12:35:04.200Z,19.14
2016-07-04T12:36:04.237Z,19.24
2016-07-04T12:37:04.263Z,19.63
2016-07-04T12:38:04.306Z,19.73
2016-07-04T12:39:04.564Z,19.73
2016-07-04T12:40:04.364Z,19.44
2016-07-04T12:41:04.409Z,19.34
2016-07-04T12:42:05.054Z,19.24
2016-07-04T12:43:04.462Z,19.26
2016-07-04T12:44:04.505Z,19.16
2016-07-04T12:45:04.536Z,19.16
2016-07-04T12:46:04.628Z,19.06
2016-07-04T12:47:04.794Z,19.26
2016-07-04T12:48:04.809Z,18.97
2016-07-04T12:49:04.828Z,18.87
2016-07-04T12:50:04.825Z,18.77
2016-07-04T12:51:04.728Z,18.77
2016-07-04T12:52:04.759Z,18.77
2016-07-04T12:53:04.789Z,18.77
2016-07-04T12:54:04.821Z,18.58
2016-07-04T12:55:04.857Z,17.71
2016-07-04T12:56:04.890Z,17.41
2016-07-04T12:57:04.951Z,17.41
2016-07-04T12:58:04.956Z,17.41
2016-07-04T12:59:04.986Z,17.32
2016-07-04T13:00:05.025Z,17.03
2016-07-04T13:01:05.052Z,16.54
2016-07-04T13:02:05.091Z,16.64
2016-07-04T13:03:05.117Z,16.45
2016-07-04T13:04:05.146Z,16.35
2016-07-04T13:05:05.186Z,16.35
2016-07-04T13:06:05.216Z,16.36
2016-07-04T13:07:05.261Z,15.97
2016-07-04T13:08:05.282Z,15.97
2016-07-04T13:09:05.325Z,16.75
2016-07-04T13:10:05.359Z,16.95
2016-07-04T13:11:05.381Z,16.85
2016-07-04T13:12:06.030Z,16.66
2016-07-04T13:13:05.454Z,16.56
2016-07-04T13:14:05.484Z,16.47
2016-07-04T13:15:05.602Z,16.37
2016-07-04T13:16:05.615Z,16.47
2016-07-04T13:17:05.656Z,16.47
2016-07-04T13:18:05.825Z,16.37
2016-07-04T13:19:05.835Z,16.76
2016-07-04T13:20:05.751Z,16.76
2016-07-04T13:21:05.881Z,16.76
2016-07-04T13:22:05.900Z,16.37